Time;durP1;ratioP1;P1;durP2;ratioP2;P2;SDS_P1;SDS_P2;PMS_P1;PMS_P2;Temp;Humidity;BMP_temperature;BMP_pressure;BME280_temperature;BME280_humidity;BME280_pressure;Samples;Min_cycle;Max_cycle;Signal;HPM_P1;HPM_P2
2023/05/15 00:01:17;;;;;;;10.30;9.20;;;12.70;99.90;;;;;;5014400;28;20046;-80
2023/05/15 00:03:43;;;;;;;10.90;9.25;;;12.70;99.90;;;;;;5020263;28;20025;-80
2023/05/15 00:06:08;;;;;;;13.10;9.77;;;12.60;99.90;;;;;;5015918;28;20120;-80
2023/05/15 00:08:34;;;;;;;12.00;9.15;;;12.60;99.90;;;;;;5017260;28;20239;-80
2023/05/15 00:10:59;;;;;;;10.98;8.63;;;12.60;99.90;;;;;;5016907;28;20061;-80
2023/05/15 00:13:25;;;;;;;11.57;8.90;;;12.60;99.90;;;;;;5015280;28;20034;-80
2023/05/15 00:15:51;;;;;;;10.55;8.73;;;12.60;99.90;;;;;;5015565;28;20492;-81
2023/05/15 00:18:16;;;;;;;10.73;8.68;;;12.50;99.90;;;;;;5014883;28;20263;-81
2023/05/15 00:20:42;;;;;;;13.18;9.13;;;12.50;99.90;;;;;;5015104;28;20682;-81
2023/05/15 00:23:11;;;;;;;11.35;9.30;;;12.50;99.90;;;;;;5015692;28;20491;-81
2023/05/15 00:25:36;;;;;;;11.98;9.43;;;12.50;99.90;;;;;;5014436;28;20080;-81
2023/05/15 00:28:02;;;;;;;11.63;9.38;;;12.40;99.90;;;;;;5014209;28;20029;-81
2023/05/15 00:30:28;;;;;;;13.13;10.45;;;12.40;99.90;;;;;;5015758;28;20147;-81
2023/05/15 00:32:53;;;;;;;12.70;8.75;;;12.40;99.90;;;;;;5014453;28;20025;-80
2023/05/15 00:35:19;;;;;;;10.88;8.43;;;12.40;99.90;;;;;;5012629;28;20026;-80
2023/05/15 00:37:44;;;;;;;12.98;8.45;;;12.40;99.90;;;;;;5015587;28;20037;-81
2023/05/15 00:40:17;;;;;;;8.95;7.75;;;12.40;99.90;;;;;;5014597;28;20026;-80
2023/05/15 00:42:45;;;;;;;9.18;7.40;;;12.40;99.90;;;;;;5014192;28;20740;-79
2023/05/15 00:45:14;;;;;;;9.80;7.93;;;12.40;99.90;;;;;;5028521;28;20030;-80
2023/05/15 00:47:42;;;;;;;8.15;7.28;;;12.40;99.90;;;;;;5015001;28;20025;-82
2023/05/15 00:50:08;;;;;;;9.10;7.60;;;12.40;99.90;;;;;;5014807;28;20034;-81
2023/05/15 00:52:35;;;;;;;10.88;7.97;;;12.40;99.90;;;;;;5014234;28;20558;-81
2023/05/15 00:55:01;;;;;;;9.15;7.63;;;12.40;99.90;;;;;;5015247;28;20153;-81
2023/05/15 00:57:28;;;;;;;9.48;7.72;;;12.40;99.90;;;;;;5014137;28;20196;-81
2023/05/15 00:59:58;;;;;;;10.77;8.05;;;12.40;99.90;;;;;;5012813;28;20487;-80
2023/05/15 01:02:23;;;;;;;10.90;9.23;;;12.30;99.90;;;;;;5013147;28;20031;-81
2023/05/15 01:04:49;;;;;;;12.23;8.63;;;12.30;99.90;;;;;;5015603;28;20033;-81
2023/05/15 01:07:15;;;;;;;12.68;9.77;;;12.20;99.90;;;;;;5016608;28;20112;-81
2023/05/15 01:09:42;;;;;;;12.50;9.93;;;12.20;99.90;;;;;;5016118;28;20032;-81
2023/05/15 01:12:08;;;;;;;14.95;9.68;;;12.10;99.90;;;;;;5014220;28;20467;-82
2023/05/15 01:14:34;;;;;;;12.25;9.10;;;12.10;99.90;;;;;;5014488;28;20306;-82
2023/05/15 01:17:00;;;;;;;12.55;9.85;;;12.10;99.90;;;;;;5015020;28;20033;-82
2023/05/15 01:19:26;;;;;;;11.30;9.07;;;12.00;99.90;;;;;;5013805;28;20043;-83
2023/05/15 01:22:24;;;;;;;13.20;9.52;;;12.00;99.90;;;;;;5015289;28;20059;-83
2023/05/15 01:24:49;;;;;;;11.68;9.75;;;12.00;99.90;;;;;;4993562;28;20029;-82
2023/05/15 01:27:21;;;;;;;13.20;10.75;;;12.00;99.90;;;;;;5013352;28;20480;-82
2023/05/15 01:29:47;;;;;;;13.30;10.17;;;12.00;99.90;;;;;;5013943;28;20616;-82
2023/05/15 01:32:26;;;;;;;10.68;9.35;;;11.90;99.90;;;;;;5014714;28;20033;-81
2023/05/15 01:34:55;;;;;;;14.18;10.70;;;11.90;99.90;;;;;;5014147;28;20037;-82
2023/05/15 01:37:24;;;;;;;11.68;10.38;;;11.90;99.90;;;;;;5014562;28;20037;-82
2023/05/15 01:39:54;;;;;;;13.35;9.98;;;11.80;99.90;;;;;;5016263;28;20037;-82
2023/05/15 01:42:24;;;;;;;13.13;10.40;;;11.80;99.90;;;;;;5014188;28;20038;-81
2023/05/15 01:44:53;;;;;;;11.75;10.32;;;11.80;99.90;;;;;;5014000;28;20029;-81
2023/05/15 01:47:24;;;;;;;13.05;10.38;;;11.80;99.90;;;;;;5014572;28;20029;-81
2023/05/15 01:49:52;;;;;;;13.52;10.43;;;11.80;99.90;;;;;;5013780;28;20036;-81
2023/05/15 01:52:29;;;;;;;17.02;12.07;;;11.70;99.90;;;;;;5012605;28;20038;-81
2023/05/15 01:54:56;;;;;;;14.13;11.23;;;11.70;99.90;;;;;;5015174;28;20128;-81
2023/05/15 01:57:24;;;;;;;13.43;10.40;;;11.60;99.90;;;;;;5015126;28;20570;-82
2023/05/15 01:59:50;;;;;;;11.60;9.93;;;11.70;99.90;;;;;;5014527;28;20036;-81
2023/05/15 02:02:17;;;;;;;13.40;10.20;;;11.70;99.90;;;;;;5013393;28;20091;-80
2023/05/15 02:04:44;;;;;;;13.13;10.90;;;11.60;99.90;;;;;;5014867;28;20522;-83
2023/05/15 02:07:10;;;;;;;13.40;10.27;;;11.60;99.90;;;;;;5015132;28;20119;-82
2023/05/15 02:09:36;;;;;;;13.38;10.70;;;11.60;99.90;;;;;;5015410;28;20487;-81
2023/05/15 02:12:04;;;;;;;14.63;12.23;;;11.60;99.90;;;;;;5015850;28;20035;-81
2023/05/15 02:14:31;;;;;;;14.70;11.77;;;11.60;99.90;;;;;;5012514;28;20033;-81
2023/05/15 02:16:56;;;;;;;14.65;11.38;;;11.50;99.90;;;;;;5013410;28;20022;-82
2023/05/15 02:19:22;;;;;;;16.20;11.68;;;11.50;99.90;;;;;;5013803;28;20030;-81
2023/05/15 02:21:47;;;;;;;14.05;11.20;;;11.50;99.90;;;;;;5014060;28;20131;-81
2023/05/15 02:24:13;;;;;;;13.38;10.65;;;11.50;99.90;;;;;;5013777;28;20026;-80
2023/05/15 02:26:57;;;;;;;12.07;10.02;;;11.50;99.90;;;;;;5014660;28;20031;-80
2023/05/15 02:29:43;;;;;;;13.00;10.93;;;11.50;99.90;;;;;;5013505;28;21025;-81
2023/05/15 02:32:29;;;;;;;13.70;10.60;;;11.50;99.90;;;;;;5007859;28;20045;-80
2023/05/15 02:35:06;;;;;;;11.38;8.93;;;11.50;99.90;;;;;;5013185;28;20037;-80
2023/05/15 02:37:37;;;;;;;13.02;9.57;;;11.60;99.90;;;;;;5013118;28;20030;-80
2023/05/15 02:40:05;;;;;;;11.82;9.93;;;11.50;99.90;;;;;;5014932;28;20110;-81
2023/05/15 02:42:31;;;;;;;12.77;9.27;;;11.50;99.90;;;;;;5015283;28;20054;-80
2023/05/15 02:44:57;;;;;;;10.60;8.30;;;11.50;99.90;;;;;;5014467;28;20155;-79
2023/05/15 02:47:23;;;;;;;10.45;8.15;;;11.50;99.90;;;;;;5012063;28;20025;-81
2023/05/15 02:49:49;;;;;;;10.18;7.90;;;11.50;99.90;;;;;;5015092;28;20029;-80
2023/05/15 02:52:15;;;;;;;10.30;8.25;;;11.50;99.90;;;;;;5011281;28;20040;-80
2023/05/15 02:54:41;;;;;;;9.95;7.30;;;11.50;99.90;;;;;;5013838;28;20052;-80
2023/05/15 02:57:09;;;;;;;10.30;7.88;;;11.50;99.90;;;;;;5015001;28;20075;-80
2023/05/15 02:59:35;;;;;;;9.48;7.47;;;11.40;99.90;;;;;;5013242;28;20025;-79
2023/05/15 03:02:02;;;;;;;10.02;7.60;;;11.40;99.90;;;;;;5013087;28;20108;-80
2023/05/15 03:04:28;;;;;;;9.93;7.75;;;11.40;99.90;;;;;;5017244;28;20036;-81
2023/05/15 03:06:53;;;;;;;9.93;8.02;;;11.40;99.90;;;;;;5017492;28;20030;-81
2023/05/15 03:09:19;;;;;;;12.35;8.90;;;11.40;99.90;;;;;;5016447;28;20360;-81
2023/05/15 03:11:44;;;;;;;11.73;9.00;;;11.30;99.90;;;;;;5017810;28;20141;-81
2023/05/15 03:14:10;;;;;;;11.93;9.77;;;11.30;99.90;;;;;;5018227;28;20034;-81
2023/05/15 03:16:37;;;;;;;14.10;9.95;;;11.30;99.90;;;;;;5016301;28;20148;-80
2023/05/15 03:19:03;;;;;;;13.98;10.35;;;11.30;99.90;;;;;;5016656;28;20021;-81
2023/05/15 03:21:29;;;;;;;15.40;11.93;;;11.30;99.90;;;;;;5016218;28;20046;-81
2023/05/15 03:23:55;;;;;;;16.48;12.27;;;11.30;99.90;;;;;;5016385;28;20022;-80
2023/05/15 03:26:20;;;;;;;16.42;12.25;;;11.30;99.90;;;;;;5017329;28;20616;-80
2023/05/15 03:28:46;;;;;;;17.42;13.27;;;11.40;99.90;;;;;;5018855;28;20025;-81
2023/05/15 03:31:13;;;;;;;16.17;12.93;;;11.40;99.90;;;;;;5016315;28;20541;-80
2023/05/15 03:33:39;;;;;;;19.75;13.38;;;11.40;99.90;;;;;;5015604;28;20060;-80
2023/05/15 03:36:05;;;;;;;20.10;14.93;;;11.50;99.90;;;;;;5017360;28;20483;-80
2023/05/15 03:38:31;;;;;;;18.23;13.80;;;11.50;99.90;;;;;;5015305;28;20465;-80
2023/05/15 03:40:56;;;;;;;20.35;14.82;;;11.50;99.90;;;;;;5017271;28;20033;-80
2023/05/15 03:43:22;;;;;;;17.02;13.02;;;11.50;99.90;;;;;;5017581;28;20029;-81
2023/05/15 03:45:48;;;;;;;18.67;12.68;;;11.60;99.90;;;;;;5015621;28;20086;-80
2023/05/15 03:48:14;;;;;;;23.45;16.23;;;11.60;99.90;;;;;;5016454;28;20056;-81
2023/05/15 03:50:39;;;;;;;22.80;16.17;;;11.70;99.90;;;;;;5015781;28;20079;-81
2023/05/15 03:53:05;;;;;;;19.67;15.18;;;11.70;99.90;;;;;;5016897;28;20029;-81
2023/05/15 03:55:30;;;;;;;23.25;16.08;;;11.70;99.90;;;;;;5015935;28;20038;-80
2023/05/15 03:57:56;;;;;;;19.77;14.65;;;11.70;99.90;;;;;;5017473;28;20448;-80
2023/05/15 04:00:22;;;;;;;24.83;16.83;;;11.80;99.90;;;;;;5016958;28;20038;-81
2023/05/15 04:02:48;;;;;;;20.45;16.02;;;11.80;99.90;;;;;;5017094;28;20052;-81
2023/05/15 04:05:14;;;;;;;24.17;16.83;;;11.90;99.90;;;;;;5014615;28;20029;-81
2023/05/15 04:07:40;;;;;;;27.00;19.73;;;11.90;99.90;;;;;;5015902;28;20036;-81
2023/05/15 04:10:06;;;;;;;25.27;18.17;;;11.80;99.90;;;;;;5017754;28;20041;-81
2023/05/15 04:12:33;;;;;;;21.58;16.25;;;11.80;99.90;;;;;;5017373;28;20403;-80
2023/05/15 04:15:14;;;;;;;23.95;16.48;;;11.70;99.90;;;;;;5016526;28;20132;-82
2023/05/15 04:17:40;;;;;;;18.38;13.57;;;11.60;99.90;;;;;;5015421;28;20028;-81
2023/05/15 04:20:06;;;;;;;19.88;15.18;;;11.60;99.90;;;;;;5016065;28;20033;-81
2023/05/15 04:22:32;;;;;;;18.92;13.32;;;11.50;99.90;;;;;;5015414;28;20033;-81
2023/05/15 04:24:57;;;;;;;19.83;15.00;;;11.50;99.90;;;;;;5016216;28;20030;-81
2023/05/15 04:27:23;;;;;;;23.98;16.65;;;11.50;99.90;;;;;;5015598;28;20037;-81
2023/05/15 04:29:49;;;;;;;25.20;17.65;;;11.50;99.90;;;;;;5016369;28;20057;-81
2023/05/15 04:32:14;;;;;;;28.00;18.98;;;11.50;99.90;;;;;;5013206;28;20096;-81
2023/05/15 04:34:41;;;;;;;20.10;14.85;;;11.40;99.90;;;;;;5013224;28;20022;-81
2023/05/15 04:37:06;;;;;;;18.60;14.05;;;11.40;99.90;;;;;;5012634;28;20026;-80
2023/05/15 04:39:32;;;;;;;17.40;13.15;;;11.40;99.90;;;;;;5011114;28;20025;-80
2023/05/15 04:41:58;;;;;;;21.15;14.13;;;11.40;99.90;;;;;;5012540;28;20052;-80
2023/05/15 04:44:23;;;;;;;20.60;14.10;;;11.50;99.90;;;;;;5013184;28;20031;-78
2023/05/15 04:46:49;;;;;;;22.35;16.30;;;11.50;99.90;;;;;;5012696;28;20159;-79
2023/05/15 04:49:17;;;;;;;29.80;21.77;;;11.60;99.90;;;;;;5008750;28;20105;-79
2023/05/15 04:51:43;;;;;;;24.52;17.98;;;11.60;99.90;;;;;;5006278;28;20029;-81
2023/05/15 04:54:08;;;;;;;27.65;19.02;;;11.70;99.90;;;;;;5015270;28;21135;-78
2023/05/15 04:56:35;;;;;;;23.02;17.02;;;11.80;99.90;;;;;;5010516;28;20962;-81
2023/05/15 04:59:00;;;;;;;22.88;15.68;;;11.80;99.90;;;;;;5013882;28;20107;-81
2023/05/15 05:01:26;;;;;;;22.80;17.33;;;11.80;99.90;;;;;;5010205;28;20557;-81
2023/05/15 05:03:52;;;;;;;25.13;18.55;;;11.90;99.90;;;;;;5011065;28;20106;-81
2023/05/15 05:06:17;;;;;;;19.75;14.82;;;11.90;99.90;;;;;;5010408;28;20038;-82
2023/05/15 05:08:43;;;;;;;17.52;13.02;;;11.90;99.90;;;;;;5013330;28;20025;-81
2023/05/15 05:11:08;;;;;;;15.18;12.38;;;12.00;99.90;;;;;;5010892;28;20140;-81
2023/05/15 05:13:34;;;;;;;18.58;14.95;;;12.00;99.90;;;;;;5012848;28;20371;-81
2023/05/15 05:16:00;;;;;;;23.35;16.33;;;12.10;99.90;;;;;;5010350;28;20033;-81
2023/05/15 05:18:25;;;;;;;20.35;16.40;;;12.00;99.90;;;;;;5009291;28;20025;-80
2023/05/15 05:21:04;;;;;;;18.73;14.57;;;12.00;99.90;;;;;;5010209;28;20048;-79
2023/05/15 05:23:30;;;;;;;16.42;12.95;;;12.00;99.90;;;;;;5012107;28;20052;-81
2023/05/15 05:25:56;;;;;;;17.33;13.30;;;12.10;99.90;;;;;;5013516;28;20535;-79
2023/05/15 05:28:21;;;;;;;19.73;14.20;;;12.10;99.90;;;;;;5012542;28;20037;-79
2023/05/15 05:30:47;;;;;;;17.38;13.68;;;12.10;99.90;;;;;;5014729;28;20030;-79
2023/05/15 05:33:14;;;;;;;17.25;13.68;;;12.10;99.90;;;;;;5013031;28;20022;-78
2023/05/15 05:35:40;;;;;;;20.17;15.85;;;12.10;99.90;;;;;;5030403;28;20026;-79
2023/05/15 05:38:05;;;;;;;21.35;15.93;;;12.10;99.90;;;;;;5014286;28;20932;-79
2023/05/15 05:40:31;;;;;;;20.50;16.20;;;11.90;99.90;;;;;;5018154;28;20093;-80
2023/05/15 05:43:01;;;;;;;22.00;15.95;;;11.80;99.90;;;;;;5012545;28;20135;-79
2023/05/15 05:45:27;;;;;;;21.58;15.85;;;11.70;99.90;;;;;;5012944;28;20030;-80
2023/05/15 05:47:55;;;;;;;17.42;13.65;;;11.70;99.90;;;;;;5010770;28;20666;-80
2023/05/15 05:50:21;;;;;;;21.65;15.48;;;11.70;99.90;;;;;;5013067;28;20144;-80
2023/05/15 05:52:46;;;;;;;18.08;14.88;;;11.70;99.90;;;;;;5013082;28;20026;-79
2023/05/15 05:55:12;;;;;;;15.20;12.25;;;11.70;99.90;;;;;;5014062;28;20513;-80
2023/05/15 05:57:38;;;;;;;19.52;15.60;;;11.90;99.90;;;;;;5013678;28;20144;-80
2023/05/15 06:00:07;;;;;;;22.58;17.13;;;12.10;99.90;;;;;;5013726;28;20392;-79
2023/05/15 06:02:33;;;;;;;20.05;15.93;;;12.20;99.90;;;;;;5012057;28;20519;-79
2023/05/15 06:04:58;;;;;;;19.45;15.73;;;12.30;99.90;;;;;;5012969;28;20049;-80
2023/05/15 06:07:24;;;;;;;19.55;14.88;;;12.30;99.90;;;;;;5013381;28;20458;-81
2023/05/15 06:09:50;;;;;;;19.15;13.60;;;12.40;99.90;;;;;;5013446;28;20021;-80
2023/05/15 06:12:16;;;;;;;17.83;13.25;;;12.40;99.90;;;;;;5012768;28;20545;-80
2023/05/15 06:14:41;;;;;;;16.23;13.02;;;12.40;99.90;;;;;;5013165;28;20485;-80
2023/05/15 06:17:07;;;;;;;18.85;14.45;;;12.50;99.90;;;;;;5011335;28;20131;-81
2023/05/15 06:19:32;;;;;;;16.25;12.73;;;12.50;99.90;;;;;;5012643;28;20014;-81
2023/05/15 06:21:59;;;;;;;16.58;12.73;;;12.60;99.90;;;;;;5011515;28;20168;-81
2023/05/15 06:24:25;;;;;;;17.05;12.27;;;12.60;99.90;;;;;;5011872;28;20036;-81
2023/05/15 06:26:51;;;;;;;15.55;11.25;;;12.70;99.90;;;;;;5009228;28;20116;-80
2023/05/15 06:29:16;;;;;;;15.45;12.32;;;12.80;99.90;;;;;;5011702;28;20105;-81
2023/05/15 06:31:42;;;;;;;16.92;13.18;;;12.90;99.90;;;;;;5009928;28;20029;-81
2023/05/15 06:34:07;;;;;;;16.02;12.65;;;12.90;99.90;;;;;;5009514;28;20036;-81
2023/05/15 06:36:34;;;;;;;14.38;11.13;;;12.90;99.90;;;;;;5010826;28;20026;-81
2023/05/15 06:38:59;;;;;;;15.70;12.95;;;12.80;99.90;;;;;;5015648;28;20479;-81
2023/05/15 06:41:25;;;;;;;16.45;12.90;;;12.80;99.90;;;;;;5015124;28;20045;-80
2023/05/15 06:43:51;;;;;;;14.63;12.38;;;12.80;99.90;;;;;;5014802;28;20029;-81
2023/05/15 06:46:17;;;;;;;15.95;12.32;;;12.70;99.90;;;;;;5016294;28;20044;-80
2023/05/15 06:48:43;;;;;;;12.63;10.25;;;12.70;99.90;;;;;;5017299;28;20068;-80
2023/05/15 06:51:09;;;;;;;12.70;10.82;;;12.70;99.90;;;;;;5018636;28;20597;-80
2023/05/15 06:53:35;;;;;;;13.77;11.57;;;12.80;99.90;;;;;;5018109;28;20037;-81
2023/05/15 06:56:00;;;;;;;15.27;12.30;;;12.80;99.90;;;;;;5017494;28;20037;-81
2023/05/15 06:58:26;;;;;;;14.60;11.55;;;12.90;99.90;;;;;;5012515;28;20041;-81
2023/05/15 07:00:52;;;;;;;13.30;10.60;;;12.90;99.90;;;;;;5016158;28;20037;-80
2023/05/15 07:03:17;;;;;;;12.82;10.75;;;13.00;99.90;;;;;;5015976;28;20040;-80
2023/05/15 07:05:44;;;;;;;14.13;10.55;;;13.00;99.90;;;;;;5018066;28;20619;-80
2023/05/15 07:08:09;;;;;;;13.50;9.57;;;13.10;99.90;;;;;;5015761;28;20034;-80
2023/05/15 07:10:35;;;;;;;14.90;10.95;;;13.10;99.90;;;;;;5016764;28;20487;-81
2023/05/15 07:13:00;;;;;;;17.42;12.93;;;13.20;99.90;;;;;;5014801;28;20061;-81
2023/05/15 07:15:26;;;;;;;14.32;12.25;;;13.30;99.90;;;;;;5014858;28;20018;-82
2023/05/15 07:17:52;;;;;;;18.42;14.95;;;13.30;99.90;;;;;;5013188;28;20029;-81
2023/05/15 07:20:17;;;;;;;15.50;13.73;;;13.40;99.90;;;;;;5015974;28;20033;-81
2023/05/15 07:22:43;;;;;;;17.98;14.38;;;13.50;99.90;;;;;;5017600;28;20026;-81
2023/05/15 07:25:08;;;;;;;14.15;11.35;;;13.60;99.90;;;;;;5017761;28;20034;-82
2023/05/15 07:27:34;;;;;;;12.73;10.45;;;13.60;99.90;;;;;;5014693;28;20575;-82
2023/05/15 07:30:02;;;;;;;13.40;10.82;;;13.70;99.90;;;;;;5015838;28;21565;-83
2023/05/15 07:32:29;;;;;;;11.57;9.80;;;13.80;99.90;;;;;;5029711;28;20029;-83
2023/05/15 07:34:54;;;;;;;11.30;9.32;;;13.90;99.90;;;;;;5015466;28;20052;-83
2023/05/15 07:37:20;;;;;;;12.05;8.60;;;14.10;99.90;;;;;;5016545;28;20068;-83
2023/05/15 07:39:46;;;;;;;11.82;10.27;;;14.20;99.90;;;;;;5015151;28;20094;-82
2023/05/15 07:42:11;;;;;;;11.98;10.43;;;14.30;99.90;;;;;;5014992;28;20434;-83
2023/05/15 07:44:37;;;;;;;12.23;10.18;;;14.40;99.90;;;;;;5014597;28;20040;-83
2023/05/15 07:47:02;;;;;;;11.55;9.90;;;14.30;99.90;;;;;;5014334;28;20037;-82
2023/05/15 07:49:28;;;;;;;12.07;10.68;;;14.30;99.90;;;;;;5012798;28;20044;-83
2023/05/15 07:51:53;;;;;;;12.48;10.32;;;14.20;99.90;;;;;;5016227;28;20022;-81
2023/05/15 07:54:19;;;;;;;13.50;10.25;;;14.20;99.90;;;;;;5014079;28;20034;-84
2023/05/15 07:56:45;;;;;;;11.57;8.95;;;14.20;99.90;;;;;;5013185;28;20044;-82
2023/05/15 07:59:10;;;;;;;11.63;10.00;;;14.30;99.90;;;;;;5015198;28;20033;-82
2023/05/15 08:01:36;;;;;;;11.73;9.65;;;14.40;99.90;;;;;;5012207;28;20040;-82
2023/05/15 08:04:06;;;;;;;10.88;9.77;;;14.50;99.90;;;;;;5014967;28;20112;-83
2023/05/15 08:06:31;;;;;;;11.73;10.52;;;14.60;99.90;;;;;;5015512;28;20036;-81
2023/05/15 08:08:57;;;;;;;11.82;10.15;;;14.60;99.90;;;;;;5012597;28;20290;-83
2023/05/15 08:11:24;;;;;;;10.98;9.63;;;14.70;99.90;;;;;;5013753;28;20038;-83
2023/05/15 08:13:49;;;;;;;10.60;8.40;;;14.80;99.90;;;;;;5028458;28;20584;-84
2023/05/15 08:16:15;;;;;;;10.40;7.97;;;14.90;99.90;;;;;;5015000;28;20035;-84
2023/05/15 08:18:41;;;;;;;10.50;9.43;;;15.00;99.90;;;;;;5014950;28;20025;-83
2023/05/15 08:21:06;;;;;;;10.80;9.07;;;15.10;99.90;;;;;;5016432;28;22275;-83
2023/05/15 08:23:32;;;;;;;12.35;9.60;;;15.10;99.90;;;;;;5014500;28;20208;-83
2023/05/15 08:25:58;;;;;;;10.38;9.10;;;15.10;99.90;;;;;;5018939;28;20719;-77
2023/05/15 08:28:23;;;;;;;13.95;11.27;;;15.20;99.90;;;;;;5014205;28;20494;-78
2023/05/15 08:30:49;;;;;;;20.75;14.80;;;15.20;99.90;;;;;;5013631;28;20109;-78
2023/05/15 08:33:14;;;;;;;19.00;15.20;;;15.20;99.90;;;;;;5015158;28;20099;-79
2023/05/15 08:35:40;;;;;;;16.42;13.82;;;15.30;99.90;;;;;;5016059;28;20467;-78
2023/05/15 08:38:06;;;;;;;18.42;15.90;;;15.40;99.90;;;;;;5015058;28;20029;-84
2023/05/15 08:40:31;;;;;;;17.85;15.15;;;15.40;99.90;;;;;;5013526;28;20091;-84
2023/05/15 08:43:02;;;;;;;16.92;15.07;;;15.50;99.90;;;;;;5014912;28;20037;-83
2023/05/15 08:45:28;;;;;;;15.80;14.10;;;15.60;99.90;;;;;;5013227;28;20508;-83
2023/05/15 08:47:56;;;;;;;16.67;14.18;;;15.70;99.90;;;;;;5015261;28;20487;-83
2023/05/15 08:50:22;;;;;;;17.02;14.40;;;15.90;99.90;;;;;;5016474;28;20187;-82
2023/05/15 08:52:50;;;;;;;18.88;14.63;;;16.00;99.90;;;;;;5013724;28;20029;-82
2023/05/15 08:55:16;;;;;;;17.90;14.55;;;16.00;99.90;;;;;;5013633;28;20025;-82
2023/05/15 08:57:43;;;;;;;15.35;13.73;;;16.10;99.90;;;;;;5014817;28;20028;-82
2023/05/15 09:00:13;;;;;;;21.52;16.98;;;16.20;99.90;;;;;;5014661;28;20026;-83
2023/05/15 09:02:39;;;;;;;20.77;16.42;;;16.30;99.90;;;;;;5016622;28;20022;-82
2023/05/15 09:05:06;;;;;;;17.23;14.57;;;16.30;99.90;;;;;;5015773;28;20034;-83
2023/05/15 09:07:32;;;;;;;16.58;12.90;;;16.30;99.90;;;;;;5014282;28;20056;-83
2023/05/15 09:10:00;;;;;;;16.27;14.40;;;16.40;99.90;;;;;;5014539;28;20117;-83
2023/05/15 09:12:26;;;;;;;17.35;15.40;;;16.60;99.90;;;;;;5013469;28;20115;-83
2023/05/15 09:15:16;;;;;;;16.45;14.02;;;16.70;99.90;;;;;;5015170;28;20077;-83
2023/05/15 09:17:43;;;;;;;16.02;14.20;;;16.90;99.90;;;;;;5015704;28;20026;-83
2023/05/15 09:20:24;;;;;;;14.68;13.02;;;17.10;99.90;;;;;;5015577;28;20038;-82
2023/05/15 09:22:49;;;;;;;14.80;12.38;;;17.60;99.90;;;;;;5014408;28;20038;-83
2023/05/15 09:25:32;;;;;;;12.98;11.63;;;18.00;99.90;;;;;;5015193;28;20026;-81
2023/05/15 09:27:58;;;;;;;13.85;12.35;;;18.50;99.90;;;;;;5013076;28;20483;-82
2023/05/15 09:30:26;;;;;;;14.43;12.98;;;18.80;99.90;;;;;;5012889;28;20846;-82
2023/05/15 09:32:53;;;;;;;16.42;13.73;;;19.30;99.90;;;;;;5014393;28;20030;-83
2023/05/15 09:35:34;;;;;;;15.85;12.77;;;19.70;99.90;;;;;;5014537;28;20033;-82
2023/05/15 09:38:00;;;;;;;12.00;10.70;;;19.80;99.90;;;;;;5028717;28;20459;-82
2023/05/15 09:40:30;;;;;;;13.70;12.30;;;19.90;99.90;;;;;;5013330;28;20033;-82
2023/05/15 09:42:56;;;;;;;14.15;12.60;;;20.00;99.90;;;;;;5012121;28;20029;-82
2023/05/15 09:45:24;;;;;;;17.63;15.75;;;20.10;99.90;;;;;;5013098;28;20056;-82
2023/05/15 09:47:50;;;;;;;16.65;14.65;;;20.00;99.90;;;;;;5014864;28;20482;-82
2023/05/15 09:50:21;;;;;;;13.35;11.05;;;19.90;99.90;;;;;;5014740;28;20025;-81
2023/05/15 09:52:47;;;;;;;17.48;13.70;;;19.90;99.90;;;;;;5013466;28;20033;-81
2023/05/15 09:55:15;;;;;;;15.38;12.68;;;19.90;99.90;;;;;;5012788;28;20031;-81
2023/05/15 09:57:42;;;;;;;12.85;11.38;;;19.90;99.90;;;;;;5014297;28;20040;-82
2023/05/15 10:00:11;;;;;;;10.57;9.48;;;19.90;99.90;;;;;;5011882;28;20033;-81
2023/05/15 10:02:40;;;;;;;13.80;10.35;;;19.90;99.90;;;;;;5027958;28;20064;-81
2023/05/15 10:05:06;;;;;;;9.15;8.02;;;20.10;99.90;;;;;;5014418;28;20578;-83
2023/05/15 10:07:35;;;;;;;7.97;6.88;;;20.40;99.90;;;;;;5012486;28;20590;-82
2023/05/15 10:10:03;;;;;;;9.93;7.97;;;20.70;99.90;;;;;;5011295;28;20376;-81
2023/05/15 10:12:30;;;;;;;11.75;9.82;;;20.80;99.90;;;;;;5013704;28;20045;-81
2023/05/15 10:14:57;;;;;;;11.63;10.00;;;20.70;99.90;;;;;;5017161;28;20506;-81
2023/05/15 10:17:23;;;;;;;9.80;8.25;;;20.60;99.90;;;;;;5016428;28;20426;-80
2023/05/15 10:19:52;;;;;;;9.15;8.13;;;20.60;99.90;;;;;;5018132;28;20041;-81
2023/05/15 10:22:24;;;;;;;8.57;7.43;;;20.40;99.90;;;;;;5017705;28;20489;-81
2023/05/15 10:24:57;;;;;;;9.90;7.15;;;20.40;99.90;;;;;;5016047;28;20017;-81
2023/05/15 10:27:23;;;;;;;;;;;20.50;99.90;;;;;;5015818;28;20490;-81
2023/05/15 10:29:49;;;;;;;10.30;8.55;;;20.50;99.90;;;;;;5018227;28;19944;-82
2023/05/15 10:32:16;;;;;;;11.57;10.05;;;20.70;99.90;;;;;;5015443;28;20039;-82
2023/05/15 10:34:42;;;;;;;9.48;7.93;;;20.70;99.90;;;;;;5017404;28;20036;-82
2023/05/15 10:37:09;;;;;;;10.25;8.73;;;20.70;99.90;;;;;;5016400;28;20044;-83
2023/05/15 10:39:39;;;;;;;11.60;9.60;;;20.60;99.90;;;;;;5013890;28;20028;-81
2023/05/15 10:42:06;;;;;;;15.98;13.57;;;20.50;99.90;;;;;;5016142;28;20412;-82
2023/05/15 10:44:32;;;;;;;15.43;12.77;;;20.30;99.90;;;;;;5016735;28;20705;-83
2023/05/15 10:46:58;;;;;;;12.38;10.13;;;20.00;99.90;;;;;;5015407;28;20117;-82
2023/05/15 10:49:24;;;;;;;13.88;11.50;;;19.90;99.90;;;;;;5012353;28;20156;-82
2023/05/15 10:51:51;;;;;;;11.50;9.73;;;19.90;99.90;;;;;;5016094;28;20547;-82
2023/05/15 10:54:17;;;;;;;9.35;6.97;;;19.90;99.90;;;;;;5016119;28;20041;-82
2023/05/15 10:56:43;;;;;;;8.25;6.25;;;19.80;99.90;;;;;;5014923;28;20127;-82
2023/05/15 10:59:12;;;;;;;7.95;6.18;;;19.80;99.90;;;;;;5010757;28;20033;-82
2023/05/15 11:01:40;;;;;;;7.70;5.50;;;19.70;99.90;;;;;;5010130;28;20072;-82
2023/05/15 11:04:13;;;;;;;8.68;6.53;;;19.70;99.90;;;;;;5011056;28;20115;-82
2023/05/15 11:06:44;;;;;;;9.13;7.53;;;19.70;99.90;;;;;;5011210;28;20498;-83
2023/05/15 11:09:35;;;;;;;10.18;7.82;;;19.60;99.90;;;;;;5012408;28;20544;-82
2023/05/15 11:12:02;;;;;;;9.85;7.43;;;19.50;99.90;;;;;;5011867;28;20033;-80
2023/05/15 11:14:34;;;;;;;6.78;5.90;;;19.50;99.90;;;;;;5009915;28;20036;-81
2023/05/15 11:17:02;;;;;;;6.83;5.60;;;19.50;99.90;;;;;;5013609;28;20017;-81
2023/05/15 11:19:28;;;;;;;7.82;6.82;;;19.60;99.90;;;;;;5015023;28;20107;-82
2023/05/15 11:22:26;;;;;;;7.43;6.20;;;19.60;99.90;;;;;;5012720;28;20806;-83
2023/05/15 11:25:05;;;;;;;7.75;6.47;;;19.50;99.90;;;;;;5015095;28;20036;-81
2023/05/15 11:27:32;;;;;;;9.15;7.15;;;19.40;99.90;;;;;;5014344;28;20574;-81
2023/05/15 11:30:08;;;;;;;8.75;6.93;;;19.30;99.90;;;;;;5030118;28;20031;-81
2023/05/15 11:32:45;;;;;;;7.65;6.55;;;19.30;99.90;;;;;;5015796;28;20033;-81
2023/05/15 11:35:20;;;;;;;8.93;7.85;;;19.30;99.90;;;;;;5015821;28;20041;-81
2023/05/15 11:37:55;;;;;;;9.00;7.57;;;19.30;99.90;;;;;;5015626;28;20077;-81
2023/05/15 11:40:30;;;;;;;8.23;7.07;;;19.30;99.90;;;;;;5016673;28;20029;-81
2023/05/15 11:43:04;;;;;;;9.23;7.65;;;19.30;99.90;;;;;;5014863;28;20109;-81
2023/05/15 11:45:38;;;;;;;11.25;9.35;;;19.30;99.90;;;;;;5016113;28;20112;-81
2023/05/15 11:48:05;;;;;;;13.70;8.65;;;19.40;99.90;;;;;;5016488;28;20727;-81
2023/05/15 11:50:32;;;;;;;20.58;9.80;;;19.40;99.90;;;;;;5014749;28;20086;-80
2023/05/15 11:53:02;;;;;;;14.98;8.85;;;19.40;99.90;;;;;;5015123;28;20017;-81
2023/05/15 11:55:30;;;;;;;11.43;8.85;;;19.50;99.90;;;;;;5015841;28;20033;-81
2023/05/15 11:57:55;;;;;;;9.57;7.90;;;19.50;99.90;;;;;;5016295;28;20657;-81
2023/05/15 12:00:21;;;;;;;9.32;7.45;;;19.60;99.90;;;;;;5015775;28;20096;-81
2023/05/15 12:02:46;;;;;;;11.05;7.55;;;19.60;99.90;;;;;;5016628;28;20029;-81
2023/05/15 12:05:12;;;;;;;12.85;10.82;;;19.80;99.90;;;;;;5015226;28;20064;-81
2023/05/15 12:07:42;;;;;;;11.68;10.07;;;19.70;99.90;;;;;;5013439;28;20109;-82
2023/05/15 12:10:11;;;;;;;11.85;10.07;;;19.60;99.90;;;;;;5014459;28;20025;-82
2023/05/15 12:12:47;;;;;;;12.80;10.88;;;19.60;99.90;;;;;;5014302;28;20136;-82
2023/05/15 12:15:15;;;;;;;14.85;12.57;;;19.60;99.90;;;;;;5014743;28;20022;-81
2023/05/15 12:17:42;;;;;;;17.23;14.20;;;19.60;99.90;;;;;;5015846;28;20187;-81
2023/05/15 12:20:16;;;;;;;14.13;12.63;;;19.50;99.90;;;;;;5015351;28;20026;-81
2023/05/15 12:22:41;;;;;;;14.98;11.57;;;19.50;99.90;;;;;;5013444;28;20099;-81
2023/05/15 12:25:10;;;;;;;17.80;15.27;;;19.40;99.90;;;;;;5014798;28;20515;-81
2023/05/15 12:27:36;;;;;;;18.35;16.38;;;19.40;99.90;;;;;;5013855;28;20030;-81
2023/05/15 12:30:03;;;;;;;17.88;14.63;;;19.40;99.90;;;;;;5015880;28;20037;-83
2023/05/15 12:32:35;;;;;;;20.63;17.83;;;19.40;99.90;;;;;;5013289;28;20061;-83
2023/05/15 12:35:01;;;;;;;20.42;16.45;;;19.40;99.90;;;;;;5012223;28;20111;-83